Time;durP1;ratioP1;P1;durP2;ratioP2;P2;SDS_P1;SDS_P2;PMS_P1;PMS_P2;Temp;Humidity;BMP_temperature;BMP_pressure;BME280_temperature;BME280_humidity;BME280_pressure;Samples;Min_cycle;Max_cycle;Signal;HPM_P1;HPM_P2
2022/11/04 00:01:33;;;;;;;101.85;95.53;;;;;;;15.25;74.29;101456.50;5015411;28;102354;-52
2022/11/04 00:04:00;;;;;;;109.82;102.68;;;;;;;15.25;74.31;101452.94;5007670;28;104107;-52
2022/11/04 00:06:27;;;;;;;100.85;94.28;;;;;;;15.26;74.17;101451.84;5017198;28;102094;-52
2022/11/04 00:08:57;;;;;;;104.25;97.50;;;;;;;15.26;73.99;101460.06;5016718;28;102133;-51
2022/11/04 00:14:09;;;;;;;102.93;96.38;;;;;;;15.26;74.69;101460.06;5006586;28;105638;-51
2022/11/04 00:19:21;;;;;;;100.38;94.00;;;;;;;15.25;74.27;101463.91;5015634;28;102097;-51
2022/11/04 00:29:56;;;;;;;102.93;96.35;;;;;;;15.24;74.50;101456.78;5016300;28;102219;-52
2022/11/04 00:35:09;;;;;;;105.05;98.60;;;;;;;15.24;74.01;101456.78;5010016;28;103912;-52
2022/11/04 00:37:40;;;;;;;97.68;91.53;;;;;;;15.23;74.21;101449.69;5001265;28;102502;-52
2022/11/04 00:40:10;;;;;;;104.15;97.38;;;;;;;15.24;74.21;101460.34;5016163;28;102183;-52
2022/11/04 00:42:37;;;;;;;105.40;98.80;;;;;;;15.25;74.14;101458.41;5013977;28;102327;-52
2022/11/04 00:45:05;;;;;;;104.57;98.05;;;;;;;15.25;73.87;101458.41;5014787;28;104120;-52
2022/11/04 00:47:32;;;;;;;99.80;93.60;;;;;;;15.25;74.42;101452.94;5015986;28;101992;-52
2022/11/04 00:49:59;;;;;;;102.97;96.53;;;;;;;15.26;74.29;101446.38;5016538;28;102356;-51
2022/11/04 00:52:25;;;;;;;97.85;91.75;;;;;;;15.24;74.17;101441.16;5017211;28;102263;-51
2022/11/04 00:54:53;;;;;;;98.20;92.32;;;;;;;15.25;73.83;101451.00;5002374;28;103931;-51
2022/11/04 00:57:19;;;;;;;97.70;91.50;;;;;;;15.25;74.05;101439.22;5014446;28;102157;-52
2022/11/04 00:59:46;;;;;;;97.80;91.68;;;;;;;15.24;73.96;101454.03;5007921;28;102316;-52
2022/11/04 01:02:12;;;;;;;104.00;97.57;;;;;;;15.25;74.08;101447.44;5013484;28;102159;-52
2022/11/04 01:04:39;;;;;;;100.45;94.15;;;;;;;15.23;73.83;101438.72;5014699;28;103841;-52
2022/11/04 01:07:06;;;;;;;95.10;89.22;;;;;;;15.24;74.25;101440.34;5015444;28;102158;-51
2022/11/04 01:09:32;;;;;;;105.82;99.32;;;;;;;15.24;74.14;101440.34;5015019;28;101891;-52
2022/11/04 01:12:00;;;;;;;96.82;90.75;;;;;;;15.23;74.39;101439.53;5017101;28;102312;-52
2022/11/04 01:14:27;;;;;;;98.97;92.93;;;;;;;15.23;74.07;101433.22;5015247;28;103920;-51
2022/11/04 01:16:54;;;;;;;98.97;92.85;;;;;;;15.23;74.63;101422.25;5015307;28;105150;-52
2022/11/04 01:19:21;;;;;;;97.32;91.30;;;;;;;15.22;74.07;101426.06;5014913;28;102202;-51
2022/11/04 01:21:51;;;;;;;95.40;89.60;;;;;;;15.22;74.53;101437.03;5015627;28;102631;-52
2022/11/04 01:24:18;;;;;;;104.80;98.50;;;;;;;15.23;74.56;101427.75;5006768;28;107866;-52
2022/11/04 01:26:47;;;;;;;102.93;96.88;;;;;;;15.22;74.31;101431.56;5012243;28;102096;-52
2022/11/04 01:29:15;;;;;;;103.97;97.57;;;;;;;15.21;74.77;101435.41;5013387;28;102019;-52
2022/11/04 01:31:42;;;;;;;;;;;;;;;15.22;74.43;101420.59;5016635;28;102432;-52
2022/11/04 01:34:09;;;;;;;98.10;91.90;;;;;;;15.21;74.45;101418.97;5014402;28;104007;-52
2022/11/04 01:36:38;;;;;;;101.78;95.65;;;;;;;15.21;74.66;101419.78;5014043;28;102582;-52
2022/11/04 01:39:04;;;;;;;99.93;93.97;;;;;;;15.21;74.59;101419.78;5007149;28;102070;-52
2022/11/04 01:41:33;;;;;;;95.35;89.63;;;;;;;15.21;74.36;101419.78;5015736;28;102710;-51
2022/11/04 01:44:02;;;;;;;99.93;94.07;;;;;;;15.20;74.19;101420.06;5013190;28;104027;-52
2022/11/04 01:46:37;;;;;;;99.55;93.43;;;;;;;15.21;74.66;101429.94;5001673;28;103648;-52
2022/11/04 01:49:17;;;;;;;98.20;92.43;;;;;;;15.21;74.78;101429.94;5010574;28;102409;-51
2022/11/04 01:51:47;;;;;;;98.57;92.57;;;;;;;15.22;74.20;101434.31;5016193;28;102187;-51
2022/11/04 01:54:14;;;;;;;101.05;94.88;;;;;;;15.22;74.59;101437.03;5014894;28;104122;-52
2022/11/04 01:56:45;;;;;;;101.60;95.77;;;;;;;15.20;74.19;101431.03;5014017;28;102518;-51
2022/11/04 01:59:18;;;;;;;105.10;98.72;;;;;;;15.20;74.70;101428.31;5007601;28;102182;-51
2022/11/04 02:01:46;;;;;;;94.97;89.13;;;;;;;15.20;74.46;101433.78;5014802;28;102209;-52
2022/11/04 02:04:26;;;;;;;94.97;89.20;;;;;;;15.18;74.21;101425.84;5012528;28;103931;-52
2022/11/04 02:06:55;;;;;;;95.00;89.25;;;;;;;15.20;74.82;101422.81;5013056;28;102175;-52
2022/11/04 02:09:24;;;;;;;102.07;95.97;;;;;;;15.20;74.03;101417.34;5013786;28;102655;-51
2022/11/04 02:14:36;;;;;;;96.10;90.32;;;;;;;15.19;74.72;101410.22;5012187;28;104116;-51
2022/11/04 02:17:20;;;;;;;102.20;96.32;;;;;;;15.19;74.52;101404.75;5010836;28;102649;-51
2022/11/04 02:20:11;;;;;;;98.20;92.25;;;;;;;15.19;74.28;101405.56;5012291;28;102396;-51
2022/11/04 02:23:20;;;;;;;97.35;91.53;;;;;;;15.19;74.79;101413.78;5012316;28;102822;-52
2022/11/04 02:26:25;;;;;;;96.22;90.55;;;;;;;15.18;74.42;101403.09;4998361;28;103850;-51
2022/11/04 02:29:17;;;;;;;95.75;89.88;;;;;;;15.18;74.12;101419.53;4996765;28;102053;-52
2022/11/04 02:31:52;;;;;;;103.93;98.03;;;;;;;15.19;74.35;101415.72;4999416;28;102455;-51
2022/11/04 02:34:26;;;;;;;99.35;93.45;;;;;;;15.18;74.51;101425.84;5015950;28;102163;-51
2022/11/04 02:37:01;;;;;;;102.28;96.20;;;;;;;15.18;74.45;101420.34;5010117;28;108558;-52
2022/11/04 02:39:36;;;;;;;103.32;97.40;;;;;;;15.19;74.24;101423.94;5014319;28;102528;-51
2022/11/04 02:42:11;;;;;;;94.30;88.85;;;;;;;15.19;74.57;101421.19;5013612;28;102460;-51
2022/11/04 02:44:47;;;;;;;93.82;88.30;;;;;;;15.18;74.68;101435.97;5014619;28;102240;-51
2022/11/04 02:47:18;;;;;;;99.57;93.55;;;;;;;15.18;74.79;101435.97;5016748;28;104146;-51
2022/11/04 02:49:51;;;;;;;88.90;83.80;;;;;;;15.17;74.27;101428.88;5018841;28;102211;-52
2022/11/04 02:52:24;;;;;;;99.05;93.25;;;;;;;15.18;74.27;101427.75;5017186;28;102557;-51
2022/11/04 02:54:59;;;;;;;102.47;96.43;;;;;;;15.18;74.62;101425.00;5008772;28;102104;-51
2022/11/04 02:57:29;;;;;;;91.97;86.55;;;;;;;15.18;74.65;101433.25;5015264;28;103926;-51
2022/11/04 03:00:00;;;;;;;107.20;101.15;;;;;;;15.18;74.41;101435.97;5007467;28;101939;-51
2022/11/04 03:02:34;;;;;;;96.25;90.75;;;;;;;15.18;74.47;101435.97;5004409;28;102360;-52
2022/11/04 03:05:04;;;;;;;108.65;102.43;;;;;;;15.17;74.12;101421.47;5003913;28;102301;-51
2022/11/04 03:07:38;;;;;;;100.50;94.70;;;;;;;15.17;74.06;101434.34;5017053;28;104040;-51
2022/11/04 03:10:09;;;;;;;103.95;98.00;;;;;;;15.17;74.30;101426.13;5018243;28;102008;-52
2022/11/04 03:12:41;;;;;;;96.63;91.10;;;;;;;15.18;74.05;101425.00;5017529;28;102311;-51
2022/11/04 03:15:16;;;;;;;93.43;88.03;;;;;;;15.16;74.20;101427.25;5017939;28;102558;-51
2022/11/04 03:17:51;;;;;;;105.13;99.03;;;;;;;15.16;74.54;101425.31;5001384;28;104060;-51
2022/11/04 03:20:23;;;;;;;94.25;88.65;;;;;;;15.17;74.76;101420.66;5017376;28;102231;-52
2022/11/04 03:22:54;;;;;;;104.60;98.68;;;;;;;15.16;74.67;101416.28;5013639;28;102432;-52
2022/11/04 03:25:26;;;;;;;100.57;94.75;;;;;;;15.17;74.07;101412.41;5017771;28;102314;-51
2022/11/04 03:28:00;;;;;;;99.85;94.03;;;;;;;15.16;74.43;101413.53;5014732;28;103917;-51
2022/11/04 03:30:36;;;;;;;92.95;87.45;;;;;;;15.15;74.39;101423.69;5014974;28;102627;-52
2022/11/04 03:33:11;;;;;;;101.13;95.28;;;;;;;15.14;74.44;101411.88;5015125;28;102012;-51
2022/11/04 03:35:37;;;;;;;94.65;89.10;;;;;;;15.16;74.46;101424.50;5002788;28;101943;-51
2022/11/04 03:38:04;;;;;;;99.93;94.25;;;;;;;15.14;74.10;101425.59;5008241;28;104040;-52
2022/11/04 03:40:33;;;;;;;92.00;86.75;;;;;;;15.16;74.21;101410.78;5017578;28;102014;-52
2022/11/04 03:43:04;;;;;;;95.72;90.22;;;;;;;15.16;74.54;101421.75;5014254;28;102438;-51
2022/11/04 03:45:32;;;;;;;100.50;94.78;;;;;;;15.17;74.20;101412.41;5017682;28;102471;-51
2022/11/04 03:47:59;;;;;;;92.55;87.05;;;;;;;15.16;74.62;101413.53;5008056;28;104106;-52
2022/11/04 03:50:28;;;;;;;98.78;93.13;;;;;;;15.16;74.31;101406.13;5009097;28;102566;-52
2022/11/04 03:52:57;;;;;;;94.32;89.00;;;;;;;15.14;74.45;101403.66;5007006;28;102198;-52
2022/11/04 03:55:37;;;;;;;95.40;89.93;;;;;;;15.16;74.53;101402.56;5016580;28;102174;-51
2022/11/04 03:58:09;;;;;;;96.63;91.20;;;;;;;15.14;74.28;101403.66;5012348;28;103818;-52
2022/11/04 04:00:45;;;;;;;97.40;91.72;;;;;;;15.14;74.56;101409.13;5010958;28;102151;-51
2022/11/04 04:03:17;;;;;;;98.03;92.47;;;;;;;15.15;74.13;101407.22;5016343;28;102205;-51
2022/11/04 04:05:52;;;;;;;96.18;90.82;;;;;;;15.15;74.46;101409.97;5018350;28;102449;-52
2022/11/04 04:08:28;;;;;;;100.00;94.38;;;;;;;15.14;74.37;101403.66;5010342;28;103918;-51
2022/11/04 04:11:05;;;;;;;96.78;91.35;;;;;;;15.13;74.14;101398.47;5012870;28;101944;-52
2022/11/04 04:13:39;;;;;;;103.05;97.28;;;;;;;15.13;74.00;101402.00;5016012;28;102962;-52
2022/11/04 04:16:12;;;;;;;95.20;89.80;;;;;;;15.12;74.12;101400.38;5016664;28;102356;-52
2022/11/04 04:18:44;;;;;;;94.10;88.70;;;;;;;15.14;74.19;101403.66;5014559;28;104014;-52
2022/11/04 04:21:14;;;;;;;99.78;94.10;;;;;;;15.12;74.38;101397.66;5014902;28;102202;-52
2022/11/04 04:29:19;;;;;;;99.55;93.68;;;;;;;15.12;74.78;101394.91;5015062;28;104320;-52
2022/11/04 04:31:48;;;;;;;87.75;82.75;;;;;;;15.13;74.13;101410.25;5016303;28;102243;-52
2022/11/04 04:34:15;;;;;;;;;;;;;;;15.12;74.08;101411.34;5016447;28;102055;-52
2022/11/04 04:36:46;;;;;;;101.82;96.18;;;;;;;15.13;74.49;101410.25;5016531;28;102497;-52
2022/11/04 04:45:03;;;;;;;95.20;89.80;;;;;;;15.12;74.45;101405.88;5010785;28;102371;-52
2022/11/04 04:47:43;;;;;;;92.85;87.65;;;;;;;15.11;74.25;101406.97;5002809;28;102673;-52
2022/11/04 04:50:15;;;;;;;96.15;90.80;;;;;;;15.11;74.14;101409.72;5014396;28;103955;-52
2022/11/04 04:52:47;;;;;;;89.15;83.95;;;;;;;15.10;74.33;101418.22;5015967;28;103051;-52
2022/11/04 04:55:14;;;;;;;96.00;90.55;;;;;;;15.11;74.02;101417.94;5015181;28;102156;-52
2022/11/04 04:57:43;;;;;;;93.78;88.47;;;;;;;15.12;74.48;101422.31;5004287;28;102170;-52
2022/11/04 05:00:13;;;;;;;99.03;93.30;;;;;;;15.13;74.43;101434.09;5005653;28;103883;-52
2022/11/04 05:02:41;;;;;;;92.13;87.05;;;;;;;15.11;74.24;101426.19;5011822;28;103093;-52
2022/11/04 05:05:09;;;;;;;92.07;86.93;;;;;;;15.11;74.50;101436.28;5015365;28;102182;-52
2022/11/04 05:07:35;;;;;;;94.85;89.45;;;;;;;15.12;74.39;101432.47;5008237;28;102243;-51
2022/11/04 05:10:02;;;;;;;96.97;91.57;;;;;;;15.12;74.08;101438.78;5014173;28;103823;-51
2022/11/04 05:13:24;;;;;;;95.35;90.10;;;;;;;15.11;74.01;101437.13;5016199;28;102206;-52
2022/11/04 05:15:16;;;;;;;98.05;92.30;;;;;;;15.12;74.28;101438.78;5014478;28;102199;-52
2022/11/04 05:17:44;;;;;;;96.13;90.78;;;;;;;15.12;74.25;101432.47;5016418;28;102181;-52
2022/11/04 05:20:11;;;;;;;99.57;94.23;;;;;;;15.10;74.21;101435.47;5013712;28;104070;-52
2022/11/04 05:22:39;;;;;;;93.63;88.45;;;;;;;15.11;74.00;101428.91;5014367;28;102234;-52
2022/11/04 05:25:06;;;;;;;101.28;95.60;;;;;;;15.10;74.42;101440.97;5014708;28;102579;-52
2022/11/04 05:27:32;;;;;;;89.40;84.20;;;;;;;15.10;74.05;101443.72;5016471;28;102313;-52
2022/11/04 05:29:59;;;;;;;91.13;86.07;;;;;;;15.12;73.99;101449.75;5014868;28;103883;-51
2022/11/04 05:32:28;;;;;;;88.43;83.43;;;;;;;15.12;74.25;101448.91;5013288;28;102432;-51
2022/11/04 05:34:57;;;;;;;91.18;86.05;;;;;;;15.11;74.49;101442.63;5014198;28;102083;-52
2022/11/04 05:37:24;;;;;;;94.27;88.83;;;;;;;15.12;74.10;101454.41;5014845;28;102234;-51
2022/11/04 05:39:50;;;;;;;100.18;94.68;;;;;;;15.11;74.19;101456.34;5001122;28;104025;-52
2022/11/04 05:42:17;;;;;;;90.82;85.70;;;;;;;15.12;74.03;101463.44;5008007;28;102211;-51
2022/11/04 05:44:43;;;;;;;95.25;90.00;;;;;;;15.11;74.14;101470.03;4998835;28;102300;-51
2022/11/04 05:47:10;;;;;;;99.22;93.55;;;;;;;15.10;74.33;101468.38;5008911;28;102084;-52
2022/11/04 05:49:37;;;;;;;98.60;93.20;;;;;;;15.11;74.12;101472.78;5012670;28;104082;-52
2022/11/04 05:52:05;;;;;;;99.50;93.93;;;;;;;15.11;74.38;101472.78;5010927;28;102625;-51
2022/11/04 05:54:32;;;;;;;102.88;97.00;;;;;;;15.11;74.04;101472.78;5009633;28;102254;-52
2022/11/04 05:56:58;;;;;;;100.65;95.07;;;;;;;15.11;74.30;101471.94;5010869;28;102553;-51
2022/11/04 05:59:25;;;;;;;91.18;86.10;;;;;;;15.12;74.25;101470.84;5008740;28;103890;-51
2022/11/04 06:01:51;;;;;;;91.47;86.32;;;;;;;15.12;74.08;101481.81;5015067;28;102247;-52
2022/11/04 06:04:18;;;;;;;98.07;92.50;;;;;;;15.13;74.37;101478.78;5013098;28;102258;-51
2022/11/04 06:06:45;;;;;;;100.32;94.78;;;;;;;15.13;74.50;101480.72;5016516;28;102186;-52
2022/11/04 06:09:12;;;;;;;94.68;89.22;;;;;;;15.12;74.14;101482.63;5013170;28;104015;-52
2022/11/04 06:11:40;;;;;;;98.53;93.25;;;;;;;15.14;74.00;101485.09;5010971;28;102581;-52
2022/11/04 06:14:12;;;;;;;94.00;88.78;;;;;;;15.12;74.00;101479.91;5011219;28;102462;-52
2022/11/04 06:16:40;;;;;;;98.15;92.57;;;;;;;15.12;74.13;101479.91;5014917;28;102182;-52
2022/11/04 06:19:07;;;;;;;88.20;83.10;;;;;;;15.14;74.19;101490.56;5011463;28;103924;-52
2022/11/04 06:21:33;;;;;;;96.72;91.32;;;;;;;15.14;74.00;101494.13;5008606;28;102232;-52
2022/11/04 06:24:01;;;;;;;98.35;92.82;;;;;;;15.12;74.45;101485.38;5009172;28;102499;-52
2022/11/04 06:26:32;;;;;;;97.95;92.53;;;;;;;15.14;74.41;101502.34;5016003;28;103941;-52
2022/11/04 06:28:58;;;;;;;91.75;86.53;;;;;;;15.13;74.30;101494.41;5017958;28;103960;-52
2022/11/04 06:31:25;;;;;;;94.53;89.18;;;;;;;15.13;73.95;101497.97;5018501;28;102313;-52
2022/11/04 06:33:52;;;;;;;98.97;93.38;;;;;;;15.14;73.86;101498.78;5018117;28;102128;-52
2022/11/04 06:36:18;;;;;;;97.72;92.03;;;;;;;15.14;73.98;101507.00;5019021;28;102546;-52
2022/11/04 06:38:45;;;;;;;94.85;89.35;;;;;;;15.13;73.99;101495.22;5011606;28;104110;-51
2022/11/04 06:41:13;;;;;;;97.65;92.25;;;;;;;15.14;73.79;101502.34;5015759;28;102413;-52
2022/11/04 06:43:42;;;;;;;;;;;;;;;15.16;73.84;101504.00;5017687;28;102214;-51
2022/11/04 06:46:24;;;;;;;92.50;87.28;;;;;;;15.16;73.75;101504.00;5007962;28;102286;-52
2022/11/04 06:48:51;;;;;;;92.07;86.68;;;;;;;15.16;73.82;101504.81;5013085;28;104882;-51
2022/11/04 06:51:18;;;;;;;104.25;98.55;;;;;;;15.16;73.60;101507.56;5017742;28;102190;-52
2022/11/04 06:53:45;;;;;;;98.53;93.13;;;;;;;15.16;74.16;101509.50;5017288;28;101892;-51
2022/11/04 06:56:12;;;;;;;93.53;88.38;;;;;;;15.17;73.48;101516.59;5018945;28;102502;-52
2022/11/04 06:58:39;;;;;;;107.45;101.47;;;;;;;15.18;73.54;101518.25;5014545;28;103732;-51
2022/11/04 07:01:07;;;;;;;98.15;92.63;;;;;;;15.17;74.02;101514.69;5012588;28;102434;-51
2022/11/04 07:03:34;;;;;;;;;;;;;;;15.17;74.20;101511.94;5007003;28;102192;-51
2022/11/04 07:06:05;;;;;;;95.60;90.28;;;;;;;15.17;74.50;101511.13;5011973;28;102412;-51
2022/11/04 07:08:31;;;;;;;92.82;87.57;;;;;;;15.17;74.24;101508.38;5014218;28;104197;-51
2022/11/04 07:10:59;;;;;;;93.53;88.07;;;;;;;15.18;73.83;101512.75;5013489;28;104701;-51
2022/11/04 07:13:26;;;;;;;100.30;94.57;;;;;;;15.18;74.13;101510.00;5016421;28;102634;-52
2022/11/04 07:15:53;;;;;;;96.40;90.97;;;;;;;15.19;74.52;101517.16;5005117;28;108453;-52
2022/11/04 07:18:21;;;;;;;97.93;92.60;;;;;;;15.18;74.45;101515.50;5009302;28;103932;-51
2022/11/04 07:20:48;;;;;;;102.72;96.88;;;;;;;15.20;73.99;101516.03;5017467;28;102286;-51
2022/11/04 07:23:15;;;;;;;96.97;91.47;;;;;;;15.19;74.90;101509.75;5013101;28;102458;-52
2022/11/04 07:25:42;;;;;;;103.35;97.45;;;;;;;15.20;74.32;101510.56;5017357;28;102243;-52
2022/11/04 07:28:08;;;;;;;102.63;96.82;;;;;;;15.22;73.93;101513.81;5016399;28;103959;-52
2022/11/04 07:30:35;;;;;;;93.60;88.22;;;;;;;15.22;74.06;101505.59;5016788;28;102336;-52
2022/11/04 07:33:03;;;;;;;102.63;96.67;;;;;;;15.21;74.03;101501.22;5015426;28;102140;-52
2022/11/04 07:35:31;;;;;;;105.35;99.70;;;;;;;15.24;74.22;101498.72;5016932;28;102182;-52
2022/11/04 07:37:57;;;;;;;94.47;89.10;;;;;;;15.24;73.86;101501.47;5015767;28;104039;-51
2022/11/04 07:40:24;;;;;;;95.88;90.50;;;;;;;15.24;73.93;101492.44;5007792;28;102137;-51
2022/11/04 07:42:50;;;;;;;97.70;92.28;;;;;;;15.25;73.89;101492.13;5016609;28;102489;-52
2022/11/04 07:45:17;;;;;;;96.07;90.68;;;;;;;15.26;73.74;101490.25;5012395;28;102256;-52
2022/11/04 07:47:44;;;;;;;101.05;95.35;;;;;;;15.27;73.71;101481.72;5014925;28;103926;-51
2022/11/04 07:50:12;;;;;;;95.75;90.50;;;;;;;15.28;73.63;101475.13;5017782;28;102131;-51
2022/11/04 07:52:40;;;;;;;103.53;97.70;;;;;;;15.30;73.48;101481.16;5016351;28;102239;-52
2022/11/04 07:55:08;;;;;;;101.22;95.68;;;;;;;15.30;73.54;101475.66;5017694;28;102214;-52
2022/11/04 07:57:36;;;;;;;98.22;92.55;;;;;;;15.31;73.25;101474.56;5010604;28;104006;-51
2022/11/04 08:00:05;;;;;;;97.60;92.18;;;;;;;15.31;73.58;101474.56;5016589;28;102374;-51
2022/11/04 08:02:32;;;;;;;102.32;96.50;;;;;;;15.32;73.40;101467.16;5016560;28;102758;-51
2022/11/04 08:04:59;;;;;;;100.00;94.38;;;;;;;15.35;73.36;101463.84;5016849;28;102376;-51
2022/11/04 08:07:25;;;;;;;93.85;88.47;;;;;;;15.36;73.60;101470.94;5015937;28;103838;-52
2022/11/04 08:09:53;;;;;;;99.28;93.78;;;;;;;15.37;73.53;101472.63;5013501;28;102655;-51
2022/11/04 08:12:21;;;;;;;101.88;96.22;;;;;;;15.37;73.38;101458.91;5009417;28;102295;-51
2022/11/04 08:14:47;;;;;;;88.57;83.57;;;;;;;15.38;73.48;101449.56;5016303;28;102407;-52
2022/11/04 08:17:13;;;;;;;97.15;91.75;;;;;;;15.38;73.31;101453.13;5006492;28;103937;-52
2022/11/04 08:19:41;;;;;;;102.72;97.07;;;;;;;15.39;73.47;101456.66;5015977;28;102616;-51
2022/11/04 08:22:07;;;;;;;99.00;93.38;;;;;;;15.42;73.56;101447.06;5015122;28;102079;-52
2022/11/04 08:24:34;;;;;;;92.15;86.97;;;;;;;15.43;73.47;101449.50;5016429;28;102765;-52
2022/11/04 08:27:06;;;;;;;100.75;95.13;;;;;;;15.44;73.54;101444.88;5013320;28;104032;-52
2022/11/04 08:29:34;;;;;;;93.65;88.57;;;;;;;15.45;73.90;101441.81;5016450;28;102387;-52
2022/11/04 08:32:00;;;;;;;97.53;92.05;;;;;;;15.45;73.32;101436.34;5005573;28;102367;-52
2022/11/04 08:34:28;;;;;;;95.32;90.07;;;;;;;15.46;73.36;101437.97;5006286;28;102345;-52
2022/11/04 08:36:56;;;;;;;96.53;91.07;;;;;;;15.47;73.40;101425.91;5009958;28;103936;-52
2022/11/04 08:39:23;;;;;;;65.47;61.87;;;;;;;15.47;73.14;101428.66;5012503;28;102321;-52
2022/11/04 08:41:52;;;;;;;90.90;85.90;;;;;;;15.49;73.10;101423.69;5001502;28;102654;-52
2022/11/04 08:44:21;;;;;;;87.53;82.53;;;;;;;15.50;72.87;101428.06;5013115;28;102097;-52
2022/11/04 08:46:47;;;;;;;85.93;81.13;;;;;;;15.50;73.43;101419.81;5012933;28;103917;-51
2022/11/04 08:49:14;;;;;;;93.70;88.60;;;;;;;15.52;73.39;101414.88;5013330;28;102655;-52
2022/11/04 08:51:45;;;;;;;92.80;87.55;;;;;;;15.53;72.98;101424.75;5013777;28;102013;-52
2022/11/04 08:54:12;;;;;;;93.00;87.93;;;;;;;15.54;72.92;101418.16;5013492;28;102486;-52
2022/11/04 08:56:39;;;;;;;88.30;83.38;;;;;;;15.55;72.79;101419.81;5012416;28;103866;-52
2022/11/04 08:59:05;;;;;;;88.38;83.50;;;;;;;15.55;72.76;101408.00;5006850;28;102384;-51
2022/11/04 09:01:35;;;;;;;88.80;83.97;;;;;;;15.56;73.26;101413.19;5009208;28;102609;-52
2022/11/04 09:04:02;;;;;;;92.68;87.70;;;;;;;15.56;73.22;101409.63;5011277;28;102279;-51
2022/11/04 09:06:31;;;;;;;90.05;84.90;;;;;;;15.56;73.22;101404.16;5013366;28;104009;-51
2022/11/04 09:09:02;;;;;;;93.82;88.45;;;;;;;15.56;73.09;101401.41;5013150;28;101975;-52
2022/11/04 09:11:30;;;;;;;85.38;80.53;;;;;;;15.56;73.14;101398.66;5011571;28;102328;-52
2022/11/04 09:13:59;;;;;;;101.55;96.03;;;;;;;15.56;72.97;101391.25;5013316;28;102152;-52
2022/11/04 09:16:27;;;;;;;89.45;84.53;;;;;;;15.59;72.88;101398.09;5012936;28;103882;-52
2022/11/04 09:19:15;;;;;;;86.22;81.40;;;;;;;15.57;72.97;101390.13;5012555;28;102086;-52
2022/11/04 09:21:42;;;;;;;86.22;81.55;;;;;;;15.58;72.70;101391.78;5013526;28;102376;-52
2022/11/04 09:24:10;;;;;;;81.65;77.13;;;;;;;15.58;72.38;101383.56;5014014;28;102107;-52
2022/11/04 09:26:38;;;;;;;86.07;81.38;;;;;;;15.58;72.67;101383.56;5011835;28;103946;-52
2022/11/04 09:29:08;;;;;;;88.70;83.72;;;;;;;15.58;72.53;101375.34;5008935;28;102509;-52
2022/11/04 09:31:37;;;;;;;87.60;82.63;;;;;;;15.60;72.74;101375.03;5007485;28;102586;-52
2022/11/04 09:34:04;;;;;;;92.95;87.88;;;;;;;15.58;72.55;101364.34;5005317;28;102235;-52
2022/11/04 09:36:32;;;;;;;88.03;83.35;;;;;;;15.60;72.91;101362.13;5005732;28;103865;-52
2022/11/04 09:38:58;;;;;;;94.28;89.05;;;;;;;15.61;72.00;101371.16;5004142;28;102494;-52
2022/11/04 09:41:50;;;;;;;92.13;87.13;;;;;;;15.61;72.25;101360.19;5000159;28;102583;-51
2022/11/04 09:44:23;;;;;;;84.13;79.45;;;;;;;15.62;72.54;101359.09;5006579;28;102208;-51
2022/11/04 09:46:53;;;;;;;85.43;80.90;;;;;;;15.63;72.34;101360.75;5008296;28;104148;-52
2022/11/04 09:49:22;;;;;;;85.50;80.82;;;;;;;15.63;72.22;101356.06;5010093;28;103606;-52
2022/11/04 09:51:50;;;;;;;84.38;79.78;;;;;;;15.63;72.53;101356.06;5009556;28;102659;-52
2022/11/04 09:54:21;;;;;;;85.43;80.72;;;;;;;15.62;72.14;101354.44;5010201;28;102365;-52
2022/11/04 09:56:50;;;;;;;88.57;83.75;;;;;;;15.63;72.46;101361.56;5010568;28;104005;-52
2022/11/04 09:59:23;;;;;;;81.78;77.30;;;;;;;15.65;71.82;101349.47;5009882;28;102301;-52
2022/11/04 10:02:02;;;;;;;81.78;77.20;;;;;;;15.63;71.86;101347.84;5004204;28;102781;-52
2022/11/04 10:04:46;;;;;;;79.57;75.25;;;;;;;15.62;71.98;101348.13;5007437;28;102872;-52
2022/11/04 10:07:27;;;;;;;82.10;77.60;;;;;;;15.61;71.34;101346.47;5005704;28;103686;-52
2022/11/04 10:10:05;;;;;;;71.53;67.45;;;;;;;15.60;71.01;101340.19;5007361;28;102409;-51
2022/11/04 10:12:47;;;;;;;81.33;76.83;;;;;;;15.61;71.09;101336.34;5007408;28;102020;-52
2022/11/04 10:15:38;;;;;;;73.20;69.05;;;;;;;15.59;71.14;101332.25;5006382;28;102622;-52
2022/11/04 10:18:18;;;;;;;75.15;70.95;;;;;;;15.58;70.87;101331.44;5003396;28;103889;-52
2022/11/04 10:20:56;;;;;;;72.18;68.22;;;;;;;15.58;70.58;101325.94;5007741;28;102698;-52
2022/11/04 10:23:31;;;;;;;70.75;66.85;;;;;;;15.57;70.09;101316.06;5006843;28;102430;-52
2022/11/04 10:26:07;;;;;;;73.38;69.22;;;;;;;15.56;69.86;101319.09;5007286;28;102451;-52
2022/11/04 10:28:41;;;;;;;70.40;66.35;;;;;;;15.56;70.05;101314.44;5006996;28;103879;-52
2022/11/04 10:31:13;;;;;;;68.05;64.28;;;;;;;15.56;70.18;101316.38;5007724;28;102217;-52
2022/11/04 10:33:46;;;;;;;75.28;71.07;;;;;;;15.56;70.00;101317.19;5008228;28;103294;-52
2022/11/04 10:36:15;;;;;;;69.90;66.10;;;;;;;15.53;70.22;101309.53;5007637;28;102940;-52
2022/11/04 10:38:47;;;;;;;68.45;64.60;;;;;;;15.53;70.55;101306.78;5006204;28;104144;-52
2022/11/04 10:41:25;;;;;;;69.60;65.80;;;;;;;15.52;70.51;101298.84;5007022;28;102520;-52
2022/11/04 10:43:56;;;;;;;66.90;63.00;;;;;;;15.53;70.28;101295.00;5006863;28;102777;-52
2022/11/04 10:46:44;;;;;;;70.68;66.78;;;;;;;15.52;69.97;101298.84;5007953;28;102573;-52
2022/11/04 10:49:32;;;;;;;66.53;62.78;;;;;;;15.51;69.39;101295.28;5003162;28;103717;-52
2022/11/04 10:51:59;;;;;;;68.38;64.38;;;;;;;15.50;69.80;101290.91;5006521;28;102478;-52
2022/11/04 10:54:29;;;;;;;62.67;59.05;;;;;;;15.49;69.83;101286.53;5006564;28;102681;-52
2022/11/04 10:56:56;;;;;;;65.93;62.35;;;;;;;15.49;69.40;101289.28;5007736;28;102925;-52
2022/11/04 10:59:27;;;;;;;63.58;59.90;;;;;;;15.47;69.77;101291.50;5007182;28;103887;-52
2022/11/04 11:01:56;;;;;;;63.42;59.80;;;;;;;15.47;68.95;101286.03;5006570;28;102292;-52
2022/11/04 11:04:25;;;;;;;55.70;52.53;;;;;;;15.46;67.57;101278.88;5005866;28;102250;-52
2022/11/04 11:06:54;;;;;;;59.08;55.75;;;;;;;15.44;68.41;101280.28;5008558;28;102863;-51
2022/11/04 11:09:28;;;;;;;61.05;57.65;;;;;;;15.44;68.76;101281.09;5008522;28;103778;-52
2022/11/04 11:11:59;;;;;;;54.95;51.78;;;;;;;15.46;67.35;101278.88;5010365;28;102447;-51
2022/11/04 11:14:35;;;;;;;60.85;57.55;;;;;;;15.44;67.13;101269.31;5013766;28;102523;-52
2022/11/04 11:17:20;;;;;;;62.17;58.67;;;;;;;15.41;67.82;101276.19;5015771;28;102575;-52
2022/11/04 11:19:54;;;;;;;61.15;57.70;;;;;;;15.44;68.97;101270.13;5012839;28;103880;-52
2022/11/04 11:22:40;;;;;;;72.13;68.07;;;;;;;15.44;69.39;101278.38;5009655;28;102298;-52
2022/11/04 11:25:28;;;;;;;66.32;62.72;;;;;;;15.42;70.34;101277.81;5009593;28;102670;-52
2022/11/04 11:27:59;;;;;;;72.38;68.47;;;;;;;15.42;70.32;101271.53;5005956;28;103043;-52
2022/11/04 11:30:30;;;;;;;75.00;70.85;;;;;;;15.42;70.23;101269.59;5012610;28;103895;-52
2022/11/04 11:32:59;;;;;;;74.53;70.30;;;;;;;15.41;69.88;101270.72;5012104;28;102100;-51
2022/11/04 11:35:31;;;;;;;75.95;71.82;;;;;;;15.41;70.13;101267.16;5011645;28;104765;-52
2022/11/04 11:37:59;;;;;;;77.03;72.78;;;;;;;15.39;71.14;101264.69;5007330;28;102546;-52
2022/11/04 11:40:30;;;;;;;77.15;73.00;;;;;;;15.38;71.01;101265.81;5004189;28;104011;-52
2022/11/04 11:42:59;;;;;;;81.28;76.75;;;;;;;15.37;70.67;101258.69;5007754;28;102814;-52
2022/11/04 11:45:27;;;;;;;78.68;74.57;;;;;;;15.36;71.20;101262.53;5002616;28;102517;-52
2022/11/04 11:47:54;;;;;;;82.38;77.85;;;;;;;15.39;71.11;101261.94;5005112;28;102262;-52